createdAt,value
2017-11-06T00:00:50.036Z,90.65
2017-11-06T00:03:21.249Z,90.65
2017-11-06T00:05:52.692Z,91.15
2017-11-06T00:08:24.442Z,91.57
2017-11-06T00:10:55.471Z,91.44
2017-11-06T00:13:26.590Z,91.38
2017-11-06T00:15:57.380Z,91.21
2017-11-06T00:18:28.594Z,90.75
2017-11-06T00:20:59.630Z,91.27
2017-11-06T00:23:30.744Z,90.66
2017-11-06T00:26:01.901Z,90.49
2017-11-06T00:28:33.226Z,91.09
2017-11-06T00:31:04.462Z,90.81
2017-11-06T00:33:36.072Z,91.37
2017-11-06T00:36:07.438Z,91.51
2017-11-06T00:38:39.114Z,90.35
2017-11-06T00:41:09.972Z,90.98
2017-11-06T00:43:41.148Z,90.71
2017-11-06T00:48:47.115Z,90.62
2017-11-06T00:51:18.335Z,90.51
2017-11-06T00:53:49.566Z,89.38
2017-11-06T00:56:21.459Z,89.97
2017-11-06T00:58:53.701Z,91.12
2017-11-06T01:01:24.667Z,90.18
2017-11-06T01:03:55.658Z,90.89
2017-11-06T01:06:26.983Z,91.08
2017-11-06T01:08:58.034Z,90.66
2017-11-06T01:11:29.249Z,91.38
2017-11-06T01:14:00.536Z,91.00
2017-11-06T01:16:31.663Z,90.59
2017-11-06T01:19:03.271Z,89.82
2017-11-06T01:21:34.296Z,90.67
2017-11-06T01:24:05.025Z,91.11
2017-11-06T01:26:35.620Z,91.43
2017-11-06T01:29:07.653Z,90.85
2017-11-06T01:31:39.399Z,90.55
2017-11-06T01:34:10.523Z,90.05
2017-11-06T01:36:41.180Z,90.30
2017-11-06T01:39:12.475Z,89.80
2017-11-06T01:41:43.439Z,90.02
2017-11-06T01:44:14.790Z,90.72
2017-11-06T01:46:45.535Z,90.53
2017-11-06T01:49:17.423Z,90.66
2017-11-06T01:51:48.159Z,90.74
2017-11-06T01:54:20.555Z,89.99
2017-11-06T01:56:59.451Z,89.65
2017-11-06T01:59:30.519Z,90.10
2017-11-06T02:02:02.072Z,90.15
2017-11-06T02:04:33.314Z,89.54
2017-11-06T02:07:04.202Z,89.36
2017-11-06T02:09:36.474Z,89.45
2017-11-06T02:12:07.150Z,88.71
2017-11-06T02:14:38.300Z,89.91
2017-11-06T02:17:09.014Z,88.89
2017-11-06T02:19:40.195Z,89.16
2017-11-06T02:22:12.119Z,89.25
2017-11-06T02:24:43.111Z,89.29
2017-11-06T02:27:16.072Z,89.36
2017-11-06T02:29:46.816Z,89.38
2017-11-06T02:32:18.868Z,88.39
2017-11-06T02:34:50.102Z,88.34
2017-11-06T02:37:21.825Z,89.21
2017-11-06T02:39:52.863Z,88.94
2017-11-06T02:42:24.373Z,88.31
2017-11-06T02:44:55.010Z,89.06
2017-11-06T02:47:26.631Z,88.83
2017-11-06T02:49:57.209Z,88.51
2017-11-06T02:52:28.174Z,89.38
2017-11-06T02:54:59.067Z,89.40
2017-11-06T02:57:30.128Z,89.79
2017-11-06T03:00:01.261Z,89.21
2017-11-06T03:02:32.181Z,89.81
2017-11-06T03:05:03.340Z,89.32
2017-11-06T03:07:34.037Z,89.74
2017-11-06T03:10:07.057Z,89.12
2017-11-06T03:12:38.468Z,88.86
2017-11-06T03:15:09.239Z,89.86
2017-11-06T03:17:41.361Z,89.45
2017-11-06T03:20:14.014Z,89.17
2017-11-06T03:22:45.583Z,89.82
2017-11-06T03:25:16.825Z,89.67
2017-11-06T03:27:47.706Z,89.81
2017-11-06T03:30:19.253Z,89.65
2017-11-06T03:32:50.543Z,89.81
2017-11-06T03:35:21.214Z,89.91
2017-11-06T03:37:52.297Z,89.52
2017-11-06T03:40:22.940Z,89.77
2017-11-06T03:42:53.486Z,90.08
2017-11-06T03:45:24.171Z,90.19
2017-11-06T03:47:55.177Z,90.57
2017-11-06T03:50:26.009Z,90.30
2017-11-06T03:52:56.730Z,90.54
2017-11-06T03:55:27.987Z,90.66
2017-11-06T03:57:58.578Z,90.83
2017-11-06T04:00:29.321Z,91.07
2017-11-06T04:03:00.275Z,90.42
2017-11-06T04:05:31.056Z,90.95
2017-11-06T04:08:01.872Z,90.86
2017-11-06T04:10:33.246Z,90.91
2017-11-06T04:13:04.870Z,90.30
2017-11-06T04:15:35.587Z,90.82
2017-11-06T04:18:07.005Z,90.77
2017-11-06T04:20:37.736Z,90.86
2017-11-06T04:23:11.387Z,90.71
2017-11-06T04:25:42.307Z,90.78
2017-11-06T04:28:13.178Z,90.51
2017-11-06T04:30:44.109Z,90.39
2017-11-06T04:33:16.139Z,88.96
2017-11-06T04:35:46.842Z,89.39
2017-11-06T04:38:17.918Z,89.60
2017-11-06T04:40:48.609Z,89.42
2017-11-06T04:43:19.838Z,88.82
2017-11-06T04:45:50.532Z,88.85
2017-11-06T04:48:21.498Z,88.74
2017-11-06T04:50:52.363Z,89.16
2017-11-06T04:53:23.225Z,89.76
2017-11-06T04:55:55.979Z,89.44
2017-11-06T04:58:27.620Z,88.43
2017-11-06T05:00:58.408Z,88.72
2017-11-06T05:03:29.242Z,88.24
2017-11-06T05:06:00.158Z,88.37
2017-11-06T05:08:30.953Z,87.64
2017-11-06T05:11:01.588Z,87.73
2017-11-06T05:13:32.488Z,88.31
2017-11-06T05:16:05.047Z,87.63
2017-11-06T05:18:38.121Z,88.15
2017-11-06T05:21:12.355Z,88.01
2017-11-06T05:26:24.196Z,88.09
2017-11-06T05:29:04.851Z,87.88
2017-11-06T05:31:35.984Z,88.64
2017-11-06T05:34:08.086Z,87.49
2017-11-06T05:36:40.024Z,88.36
2017-11-06T05:39:14.034Z,89.25
2017-11-06T05:41:52.134Z,88.79
2017-11-06T05:44:25.357Z,89.37
2017-11-06T05:46:59.597Z,89.02
2017-11-06T05:52:15.754Z,89.67
2017-11-06T05:55:11.558Z,90.47
2017-11-06T05:57:43.305Z,90.06
2017-11-06T06:00:15.613Z,90.53
2017-11-06T06:02:47.507Z,91.41
2017-11-06T06:05:19.314Z,90.61
2017-11-06T06:07:51.659Z,91.39
2017-11-06T06:10:27.388Z,91.47
2017-11-06T06:13:05.511Z,90.21
2017-11-06T06:15:38.952Z,89.35
2017-11-06T06:18:09.938Z,89.84
2017-11-06T06:20:41.911Z,90.39
2017-11-06T06:23:12.796Z,89.56
2017-11-06T06:25:43.717Z,90.18
2017-11-06T06:28:17.292Z,89.59
2017-11-06T06:30:49.318Z,89.24
2017-11-06T06:33:21.332Z,89.15
2017-11-06T06:35:52.487Z,89.49
2017-11-06T06:38:27.833Z,90.36
2017-11-06T06:40:59.085Z,90.05
2017-11-06T06:43:30.200Z,89.93
2017-11-06T06:46:05.759Z,89.52
2017-11-06T06:48:37.674Z,89.55
2017-11-06T06:51:14.510Z,88.85
2017-11-06T06:53:46.540Z,89.11
2017-11-06T06:56:18.757Z,88.71
2017-11-06T06:58:57.778Z,89.98
2017-11-06T07:01:31.419Z,89.55
2017-11-06T07:04:06.633Z,88.41
2017-11-06T07:06:38.348Z,88.42
2017-11-06T07:09:10.362Z,88.26
2017-11-06T07:11:42.760Z,88.03
2017-11-06T07:14:19.769Z,87.80
2017-11-06T07:17:07.514Z,88.81
2017-11-06T07:19:38.806Z,89.45
2017-11-06T07:22:09.819Z,89.18
2017-11-06T07:24:42.822Z,89.30
2017-11-06T07:27:13.994Z,88.90
2017-11-06T07:29:47.727Z,89.02
2017-11-06T07:32:30.491Z,89.24
2017-11-06T07:35:01.328Z,89.69
2017-11-06T07:37:34.637Z,90.02
2017-11-06T07:40:10.024Z,89.80
2017-11-06T07:42:41.758Z,89.27
2017-11-06T07:45:13.507Z,89.52
2017-11-06T07:47:44.678Z,89.17
2017-11-06T07:50:15.650Z,89.07
2017-11-06T07:52:47.494Z,88.75
2017-11-06T07:55:18.358Z,88.42
2017-11-06T07:57:49.275Z,89.25
2017-11-06T08:00:21.053Z,89.64
2017-11-06T08:02:52.142Z,89.24
2017-11-06T08:05:23.450Z,88.75
2017-11-06T08:07:54.892Z,89.30
2017-11-06T08:10:25.594Z,89.11
2017-11-06T08:12:56.996Z,89.00
2017-11-06T08:15:28.463Z,88.74
2017-11-06T08:17:59.266Z,89.58
2017-11-06T08:20:31.761Z,88.85
2017-11-06T08:23:03.952Z,88.47
2017-11-06T08:25:38.002Z,87.76
2017-11-06T08:28:10.052Z,86.50
2017-11-06T08:30:43.842Z,87.51
2017-11-06T08:33:14.755Z,86.63
2017-11-06T08:35:47.761Z,86.32
2017-11-06T08:38:19.078Z,85.42
2017-11-06T08:40:50.227Z,86.61
2017-11-06T08:43:21.409Z,87.13
2017-11-06T08:45:52.510Z,86.16
2017-11-06T08:48:27.104Z,84.90
2017-11-06T08:50:57.897Z,85.70
2017-11-06T08:53:29.662Z,86.65
2017-11-06T08:56:02.379Z,87.41
2017-11-06T08:58:35.086Z,86.56
2017-11-06T09:01:06.669Z,84.67
2017-11-06T09:03:37.390Z,85.41
2017-11-06T09:06:08.686Z,85.69
2017-11-06T09:08:39.862Z,84.91
2017-11-06T09:11:12.945Z,83.53
2017-11-06T09:13:47.015Z,83.80
2017-11-06T09:16:20.800Z,84.14
2017-11-06T09:18:55.265Z,84.84
2017-11-06T09:21:26.388Z,85.70
2017-11-06T09:23:57.860Z,85.06
2017-11-06T09:26:30.178Z,85.44
2017-11-06T09:29:01.252Z,86.43
2017-11-06T09:31:33.157Z,85.50
2017-11-06T09:34:05.093Z,84.92
2017-11-06T09:36:36.836Z,84.75
2017-11-06T09:39:08.917Z,85.12
2017-11-06T09:41:40.163Z,86.39
2017-11-06T09:44:11.351Z,83.98
2017-11-06T09:46:42.200Z,84.43
2017-11-06T09:49:13.870Z,83.76
2017-11-06T09:51:45.329Z,84.66
2017-11-06T09:54:16.494Z,84.96
2017-11-06T09:56:47.900Z,84.48
2017-11-06T09:59:19.040Z,86.02
2017-11-06T10:01:50.586Z,83.88
2017-11-06T10:04:25.206Z,84.16
2017-11-06T10:06:57.272Z,84.04
2017-11-06T10:09:28.790Z,83.26
2017-11-06T10:12:00.199Z,84.60
2017-11-06T10:14:32.103Z,84.22
2017-11-06T10:17:03.678Z,84.09
2017-11-06T10:19:35.644Z,82.32
2017-11-06T10:22:09.995Z,84.10
2017-11-06T10:24:40.824Z,84.23
2017-11-06T10:27:19.166Z,84.20
2017-11-06T10:29:51.020Z,83.65
2017-11-06T10:32:22.504Z,81.84
2017-11-06T10:34:54.325Z,85.03
2017-11-06T10:37:25.730Z,83.63
2017-11-06T10:39:57.209Z,83.92
2017-11-06T10:42:28.261Z,82.24
2017-11-06T10:44:59.947Z,79.74
2017-11-06T10:47:33.289Z,78.21
2017-11-06T10:50:05.526Z,80.44
2017-11-06T10:52:36.646Z,79.82
2017-11-06T10:55:09.013Z,80.66
2017-11-06T10:57:40.660Z,78.17
2017-11-06T11:00:12.902Z,81.51
2017-11-06T11:02:44.618Z,76.98
2017-11-06T11:05:18.675Z,76.21
2017-11-06T11:07:49.843Z,75.35
2017-11-06T11:10:22.213Z,79.27
2017-11-06T11:12:53.666Z,78.01
2017-11-06T11:15:25.238Z,74.78
2017-11-06T11:17:58.999Z,76.42
2017-11-06T11:20:31.753Z,79.78
2017-11-06T11:23:04.446Z,76.88
2017-11-06T11:25:36.956Z,78.65
2017-11-06T11:28:08.190Z,77.93
2017-11-06T11:30:39.295Z,79.23
2017-11-06T11:33:10.327Z,79.89
2017-11-06T11:35:42.284Z,80.22
2017-11-06T11:38:14.019Z,79.03
2017-11-06T11:40:45.848Z,78.40
2017-11-06T11:43:17.038Z,80.26
2017-11-06T11:45:48.835Z,78.57
2017-11-06T11:48:20.877Z,78.49
2017-11-06T11:50:52.264Z,80.10
2017-11-06T11:53:23.269Z,77.45
2017-11-06T11:55:54.574Z,77.01
2017-11-06T11:58:25.443Z,76.34
2017-11-06T12:00:56.725Z,75.66
2017-11-06T12:03:28.172Z,75.83
2017-11-06T12:05:59.154Z,75.68
2017-11-06T12:08:30.815Z,76.30
2017-11-06T12:11:01.824Z,77.21
2017-11-06T12:13:32.845Z,78.94
2017-11-06T12:16:04.420Z,77.74
2017-11-06T12:18:35.965Z,78.57
2017-11-06T12:21:07.847Z,77.09
2017-11-06T12:23:39.759Z,80.18
2017-11-06T12:26:11.926Z,77.39
2017-11-06T12:28:44.048Z,79.14
2017-11-06T12:31:19.114Z,76.01
2017-11-06T12:33:51.315Z,77.80
2017-11-06T12:36:35.510Z,77.60
2017-11-06T12:39:12.502Z,79.30
2017-11-06T12:44:43.102Z,79.46
2017-11-06T12:47:14.634Z,79.53
2017-11-06T12:50:04.503Z,79.57
2017-11-06T12:52:35.662Z,79.76
2017-11-06T12:55:07.037Z,78.75
2017-11-06T12:57:39.257Z,79.94
2017-11-06T13:00:13.248Z,79.89
2017-11-06T13:02:45.098Z,80.20
2017-11-06T13:05:15.831Z,79.02
2017-11-06T13:07:46.882Z,79.21
2017-11-06T13:10:18.408Z,77.94
2017-11-06T13:12:50.589Z,77.48
2017-11-06T13:15:22.966Z,78.33
2017-11-06T13:17:55.911Z,77.92
2017-11-06T13:20:30.105Z,77.40
2017-11-06T13:26:37.002Z,75.13
2017-11-06T13:39:45.894Z,77.43
2017-11-06T13:44:47.428Z,77.89
2017-11-06T13:48:01.939Z,78.71
2017-11-06T13:50:35.825Z,79.00
2017-11-06T13:53:08.972Z,79.07
2017-11-06T13:55:42.936Z,79.25
2017-11-06T13:58:17.614Z,79.00
2017-11-06T14:00:49.348Z,79.90
2017-11-06T14:03:20.777Z,80.36
2017-11-06T14:05:57.071Z,80.49
2017-11-06T14:08:45.221Z,79.87
2017-11-06T14:11:16.617Z,80.43
2017-11-06T14:13:49.653Z,79.56
2017-11-06T14:16:21.390Z,80.53
2017-11-06T14:18:53.989Z,78.91
2017-11-06T14:21:25.635Z,76.53
2017-11-06T14:23:56.950Z,76.79
2017-11-06T14:26:27.782Z,76.64
2017-11-06T14:28:59.056Z,76.80
2017-11-06T14:31:30.104Z,77.51
2017-11-06T14:34:48.799Z,78.41
2017-11-06T14:37:19.998Z,78.02
2017-11-06T14:39:51.381Z,77.62
2017-11-06T14:42:22.764Z,77.11
2017-11-06T14:44:54.855Z,77.75
2017-11-06T14:47:27.380Z,77.04
2017-11-06T14:50:02.794Z,78.25
2017-11-06T14:52:37.065Z,78.03
2017-11-06T14:55:10.783Z,77.90
2017-11-06T14:57:42.779Z,77.69
2017-11-06T15:00:17.516Z,77.23
2017-11-06T15:02:50.794Z,78.24
2017-11-06T15:05:22.953Z,79.32
2017-11-06T15:07:57.802Z,79.94
2017-11-06T15:10:36.488Z,81.08
2017-11-06T15:13:08.987Z,81.21
2017-11-06T15:15:41.711Z,81.17
2017-11-06T15:18:15.530Z,81.21
2017-11-06T15:20:49.274Z,81.75
2017-11-06T15:23:21.096Z,82.68
2017-11-06T15:25:53.068Z,82.72
2017-11-06T15:28:24.495Z,83.14
2017-11-06T15:30:56.094Z,82.94
2017-11-06T15:33:28.373Z,83.43
2017-11-06T15:36:00.189Z,83.72
2017-11-06T15:38:33.300Z,84.16
2017-11-06T15:41:07.442Z,83.86
2017-11-06T15:43:40.302Z,83.64
2017-11-06T15:46:12.214Z,83.36
2017-11-06T15:48:45.896Z,82.99
2017-11-06T15:51:18.242Z,82.97
2017-11-06T15:53:49.838Z,83.09
2017-11-06T15:56:22.628Z,83.37
2017-11-06T15:58:57.836Z,83.72
2017-11-06T16:01:29.632Z,84.28
2017-11-06T16:04:02.894Z,83.48
2017-11-06T16:06:34.908Z,83.89
2017-11-06T16:09:07.224Z,83.10
2017-11-06T16:11:39.383Z,83.62
2017-11-06T16:14:12.931Z,83.13
2017-11-06T16:16:44.709Z,83.72
2017-11-06T16:19:21.235Z,83.28
2017-11-06T16:21:55.160Z,83.58
2017-11-06T16:24:29.604Z,83.89
2017-11-06T16:27:09.883Z,83.29
2017-11-06T16:29:41.039Z,84.17
2017-11-06T16:32:12.338Z,83.70
2017-11-06T16:34:47.216Z,83.91
2017-11-06T16:37:20.002Z,83.71
2017-11-06T16:39:51.834Z,83.91
2017-11-06T16:42:23.259Z,83.89
2017-11-06T16:44:54.158Z,84.16
2017-11-06T16:47:25.726Z,83.85
2017-11-06T16:49:57.595Z,83.83
2017-11-06T16:52:30.309Z,83.84
2017-11-06T16:55:03.540Z,83.89
2017-11-06T16:57:34.778Z,84.32
2017-11-06T17:00:05.995Z,84.05
2017-11-06T17:02:36.869Z,84.09
2017-11-06T17:05:09.258Z,84.11
2017-11-06T17:07:40.504Z,83.55
2017-11-06T17:10:12.928Z,83.62
2017-11-06T17:12:45.571Z,84.24
2017-11-06T17:15:17.546Z,83.89
2017-11-06T17:17:52.380Z,84.53
2017-11-06T17:20:26.092Z,84.98
2017-11-06T17:22:57.515Z,84.34
2017-11-06T17:25:29.739Z,84.29
2017-11-06T17:28:00.933Z,84.86
2017-11-06T17:30:34.740Z,85.54
2017-11-06T17:33:06.643Z,85.12
2017-11-06T17:35:40.673Z,85.32
2017-11-06T17:38:13.660Z,85.69
2017-11-06T17:40:44.821Z,85.80
2017-11-06T17:43:17.580Z,86.18
2017-11-06T17:45:48.854Z,86.46
2017-11-06T17:48:20.985Z,86.73
2017-11-06T17:50:54.527Z,86.41
2017-11-06T17:53:25.923Z,87.03
2017-11-06T17:55:57.538Z,87.04
2017-11-06T17:58:29.265Z,87.75
2017-11-06T18:01:03.967Z,87.99
2017-11-06T18:03:35.322Z,88.15
2017-11-06T18:06:09.094Z,88.44
2017-11-06T18:08:40.544Z,88.40
2017-11-06T18:11:11.754Z,89.13
2017-11-06T18:13:44.288Z,89.22
2017-11-06T18:16:18.811Z,89.38
2017-11-06T18:18:50.954Z,89.65
2017-11-06T18:21:23.020Z,89.68
2017-11-06T18:23:57.744Z,89.98
2017-11-06T18:26:29.348Z,89.89
2017-11-06T18:29:05.248Z,89.96
2017-11-06T18:31:45.542Z,89.73
2017-11-06T18:34:20.973Z,89.59
2017-11-06T18:36:54.387Z,89.44
2017-11-06T18:39:43.188Z,89.19
2017-11-06T18:42:17.605Z,89.75
2017-11-06T18:44:51.274Z,90.20
2017-11-06T18:47:25.953Z,90.49
2017-11-06T18:49:59.135Z,90.92
2017-11-06T18:52:30.546Z,91.35
2017-11-06T18:55:04.240Z,91.58
2017-11-06T18:57:38.800Z,91.77
2017-11-06T19:00:14.021Z,91.71
2017-11-06T19:02:47.693Z,91.99
2017-11-06T19:05:20.564Z,91.24
2017-11-06T19:07:53.486Z,90.23
2017-11-06T19:10:26.118Z,90.47
2017-11-06T19:12:59.271Z,90.11
2017-11-06T19:15:32.681Z,90.29
2017-11-06T19:18:06.941Z,89.39
2017-11-06T19:20:38.868Z,89.91
2017-11-06T19:23:10.683Z,90.33
2017-11-06T19:25:46.623Z,89.92
2017-11-06T19:28:22.239Z,89.97
2017-11-06T19:30:54.394Z,90.42
2017-11-06T19:33:27.934Z,91.28
2017-11-06T19:36:02.598Z,91.19
2017-11-06T19:38:37.870Z,91.25
2017-11-06T19:41:13.969Z,91.09
2017-11-06T19:43:52.296Z,91.61
2017-11-06T19:46:30.460Z,91.87
2017-11-06T19:49:03.654Z,91.83
2017-11-06T19:51:36.052Z,92.46
2017-11-06T19:54:09.145Z,92.66
2017-11-06T19:56:42.848Z,92.61
2017-11-06T19:59:16.721Z,92.32
2017-11-06T20:01:52.508Z,91.59
2017-11-06T20:04:25.147Z,92.86
2017-11-06T20:07:04.365Z,93.40
2017-11-06T20:09:38.961Z,93.23
2017-11-06T20:12:11.053Z,92.75
2017-11-06T20:14:48.100Z,93.32
2017-11-06T20:17:21.694Z,93.44
2017-11-06T20:19:55.051Z,93.73
2017-11-06T20:22:34.445Z,94.52
2017-11-06T20:25:09.956Z,93.74
2017-11-06T20:27:42.705Z,92.18
2017-11-06T20:30:23.363Z,91.07
2017-11-06T20:32:57.993Z,91.86
2017-11-06T20:35:36.170Z,92.32
2017-11-06T20:38:10.422Z,91.27
2017-11-06T20:40:49.416Z,92.92
2017-11-06T20:43:22.761Z,92.31
2017-11-06T20:46:01.675Z,90.05
2017-11-06T20:48:50.727Z,88.97
2017-11-06T20:51:28.574Z,90.46
2017-11-06T20:54:01.362Z,89.20
2017-11-06T20:56:36.616Z,88.08
2017-11-06T20:59:10.094Z,88.67
2017-11-06T21:01:42.881Z,90.79
2017-11-06T21:04:14.958Z,94.57
2017-11-06T21:06:47.600Z,95.27
2017-11-06T21:09:19.313Z,95.26
2017-11-06T21:11:55.898Z,95.95
2017-11-06T21:14:29.780Z,97.20
2017-11-06T21:17:03.582Z,97.26
2017-11-06T21:19:38.335Z,97.42
2017-11-06T21:22:12.937Z,97.54
2017-11-06T21:24:52.540Z,97.84
2017-11-06T21:27:24.080Z,97.90
2017-11-06T21:30:00.497Z,98.03
2017-11-06T21:32:31.661Z,98.31
2017-11-06T21:35:02.581Z,98.17
2017-11-06T21:37:34.210Z,98.06
2017-11-06T21:40:13.138Z,96.99
2017-11-06T21:42:44.093Z,97.34
2017-11-06T21:45:19.380Z,96.61
2017-11-06T21:47:51.031Z,96.26
2017-11-06T21:50:24.050Z,95.04
2017-11-06T21:52:55.236Z,96.68
2017-11-06T21:55:26.008Z,97.67
2017-11-06T21:57:58.867Z,98.94
2017-11-06T22:00:30.517Z,99.20
2017-11-06T22:03:02.453Z,99.80
2017-11-06T22:05:34.541Z,100.00
2017-11-06T22:08:06.209Z,99.76
2017-11-06T22:10:42.226Z,99.88
2017-11-06T22:13:13.087Z,99.32
2017-11-06T22:15:44.372Z,99.05
2017-11-06T22:18:20.454Z,97.97
2017-11-06T22:20:53.922Z,97.10
2017-11-06T22:23:25.547Z,97.86
2017-11-06T22:25:58.000Z,97.59
2017-11-06T22:28:31.100Z,96.87
2017-11-06T22:31:04.746Z,95.95
2017-11-06T22:33:38.952Z,96.39
2017-11-06T22:36:11.572Z,97.19
2017-11-06T22:38:46.398Z,96.80
2017-11-06T22:41:20.361Z,96.15
2017-11-06T22:43:57.231Z,94.58
2017-11-06T22:46:30.240Z,96.89
2017-11-06T22:49:09.993Z,97.49
2017-11-06T22:51:46.528Z,98.30
2017-11-06T22:54:20.308Z,99.57
2017-11-06T22:56:53.263Z,100.00
2017-11-06T22:59:31.341Z,99.49
2017-11-06T23:04:56.128Z,100.00
2017-11-06T23:07:41.516Z,100.00
2017-11-06T23:10:14.555Z,99.21
2017-11-06T23:12:54.071Z,99.62
2017-11-06T23:15:26.898Z,98.78
2017-11-06T23:18:05.463Z,98.59
2017-11-06T23:20:38.258Z,99.05
2017-11-06T23:23:12.610Z,99.71
2017-11-06T23:25:48.994Z,99.75
2017-11-06T23:28:22.359Z,98.97
2017-11-06T23:30:55.515Z,98.65
2017-11-06T23:33:30.301Z,97.61
2017-11-06T23:36:03.858Z,96.31
2017-11-06T23:38:43.380Z,95.31
2017-11-06T23:41:17.310Z,94.19
2017-11-06T23:43:52.074Z,93.49
2017-11-06T23:46:27.755Z,93.33
2017-11-06T23:49:01.097Z,93.22
2017-11-06T23:51:36.881Z,92.95
2017-11-06T23:54:16.766Z,92.92
2017-11-06T23:56:52.163Z,92.76
2017-11-06T23:59:25.871Z,93.16
